EFOUESPA

Guest
Details From EFOU - Oulu
To ESPA - Lulea Kallax
Flight Number -
Tags generated
Created
Modified
Stats Distance 89 nm / 166 km
Max Altitude 0 ft / 0 m
Waypoints 3
Social Downloads 0
Likes 0
Share VATSIM

Download

Looking for another format? Having issues loading an existing format? Contact us
Advertisement - Login to hide

Notes

Basic altitude profile: - Ascent Rate: 2500ft/min - Ascent Speed: 250kts - Cruise Altitude: 35000ft - Cruise Speed: 420kts - Descent Rate: 1500ft/min - Descent Speed: 250kts Options: - Use NATs: yes - Use PACOTS: yes - Use low airways: yes - Use high airways: no

Route

EFOU OUK ESPA

ID Type Via Altitude Latitude Longitude Leg Dist Tot Dist Heading (true) Name
O EFOU APT - 0 ft / 0 m 64.93006˚ 25.35456˚ - 0 nm - Oulu
OUK VOR - 0 ft / 0 m 64.93155˚ 25.35928˚ 0 nm 0 nm 53° / 53° OULU VOR-DME
O ESPA APT - 0 ft / 0 m 65.54376˚ 22.12198˚ 89 nm 89 nm 296° / 293° Lulea Kallax

Altitude Profile

Advertisement - Login to hide

EFOU

Details ICAO EFOU (OUL)
Name Oulu
Region Finland
Timezone Europe/Helsinki (UTC+2.0)
Stats Elevation 47 ft / 14 m (AMSL)
Location 64.930059° 25.354560°
Runways 1
Magnetic Variation 10.661° E

METAR

EFOU 140220Z AUTO 21007KT 9999 -SN FEW006 SCT013 OVC017 M01/M02 Q0988

Decode

TAF

TAF EFOU 140234Z 1403/1503 18008KT 9999 SCT008 OVC015 TEMPO 1403/1404 BKN010 BECMG 1404/1406 5000 -SN BKN006 TEMPO 1404/1414 1300 SNRA OVC015 BECMG 1414/1416 9999 FEW010 SCT020 TEMPO 1416/1503 BKN013

Decode

Departure Runways

ID Width Length Bearing (true) Bearing (mag) Surface Threshold Offset Overrun Length
12 197 ft / 60 m 8,180 ft / 2,493 m 121.01° 110.35° Asphalt 0 ft / 0 m 200 ft / 61 m
30 197 ft / 60 m 8,180 ft / 2,493 m 301.05° 290.39° Asphalt 0 ft / 0 m 200 ft / 61 m

ESPA

Details ICAO ESPA (LLA)
Name Lulea Kallax
Region Sweden
Timezone Europe/Stockholm (UTC+1.0)
Stats Elevation 65 ft / 20 m (AMSL)
Location 65.543757° 22.121979°
Runways 1
Magnetic Variation 9.325° E

METAR

ESPA 140220Z AUTO 15002KT 9999 NCD M15/M17 Q0987

Decode

TAF

Not found

Destination Runways

ID Width Length Bearing (true) Bearing (mag) Surface Threshold Offset Overrun Length
14 148 ft / 45 m 10,957 ft / 3,340 m 137.32° 128.00° Asphalt 0 ft / 0 m 0 ft / 0 m
32 148 ft / 45 m 10,957 ft / 3,340 m 317.36° 308.04° Asphalt 0 ft / 0 m 0 ft / 0 m

Approach Navaids

Runway Type Ident Frequency Range Bearing (true) Bearing (mag) Slope Elevation
14 Localiser PA 110.30 MHz 18 nm / 33 km 137.38° 128.05° - 65 ft / 20 m (AMSL)
14 Glidescope PA 110.30 MHz 10 nm / 19 km 137.34° 128.01° 2.86° 65 ft / 20 m (AMSL)
32 Localiser SPA 109.90 MHz 18 nm / 33 km 317.33° 308.00° - 65 ft / 20 m (AMSL)
32 Glidescope SPA 109.90 MHz 10 nm / 19 km 317.34° 308.01° 2.86° 65 ft / 20 m (AMSL)
32 DME SPA 109.90 MHz 18 nm / 33 km - - - 45 ft / 14 m (AMSL)

Popular Alternatives